Nearby METAR Reports

 

KMSN - Madison, Wisconsin, USA
Distance from station: WNW 8mi, 13km
Updated: Sat, Jul-13-2024 9:53am CDT
Mostly cloudy
Mostly cloudy
 Wind from S
Wind: S 15 mph , 24 km/h
Temperature: 81°F , 27°C
Heat Index: 85°F , 29°C
Dew Point: 70°F , 21°C
Humidity: 70%
Barometer: 30.12 inHg , 1020 hPa
Clouds: Mostly cloudy
Visibility: 10 miles , 16 km
Cloud details: Mostly cloudy 4300 ft
Mostly cloudy 8000 ft
Mostly cloudy 25000 ft
2024/07/13 14:53 KMSN 131453Z 17013KT 10SM BKN043 BKN080 BKN250 27/21 A3012 RMK AO2 SLP194 CB DSNT S MOV E T02670206 58003
KC29 - Middleton, Wisconsin, USA
Distance from station: W 17mi, 27km
Updated: Sat, Jul-13-2024 10:35am CDT
Clear
Clear
 Wind from S
Wind: S 10 mph , 17 km/h
Temperature: 81°F , 27°C
Heat Index: 85°F , 29°C
Dew Point: 70°F , 21°C
Humidity: 70%
Barometer: 30.11 inHg , 1019.6 hPa
Clouds: Clear
Visibility: 10 miles , 16 km
2024/07/13 15:35 KC29 131535Z AUTO 17009KT 10SM CLR 27/21 A3011 RMK AO1 T02730209
 
KRYV - Watertown, Wisconsin, USA
Distance from station: ENE 25mi, 40km
Updated: Sat, Jul-13-2024 10:35am CDT
Mostly cloudy
Mostly cloudy
 Wind from S
Wind: S 8 mph , 13 km/h
Temperature: 81°F , 27°C
Heat Index: 84°F , 29°C
Dew Point: 68°F , 20°C
Humidity: 66%
Barometer: 30.12 inHg , 1020 hPa
Clouds: Mostly cloudy
Visibility: 10 miles , 16 km
Cloud details: Partly cloudy 2600 ft
Partly cloudy 4700 ft
Mostly cloudy 5500 ft
2024/07/13 15:35 KRYV 131535Z AUTO 19007KT 10SM SCT026 SCT047 BKN055 27/20 A3012 RMK AO2 T02700200
KUNU - Juneau, Wisconsin, USA
Distance from station: NE 33mi, 54km
Updated: Sat, Jul-13-2024 10:35am CDT
Partly cloudy
Partly cloudy
 Wind from S
Wind: S 9 mph , 15 km/h
Temperature: 81°F , 27°C
Heat Index: 84°F , 29°C
Dew Point: 68°F , 20°C
Humidity: 66%
Barometer: 30.14 inHg , 1020.7 hPa
Clouds: Partly cloudy
Visibility: 10 miles , 16 km
Cloud details: Partly cloudy 3000 ft
2024/07/13 15:35 KUNU 131535Z AUTO 17008KT 10SM SCT030 27/20 A3014 RMK AO2 T02660195
 
KJVL - Janesville/Rock, Wisconsin, USA
Distance from station: SSE 34mi, 55km
Updated: Sat, Jul-13-2024 9:45am CDT
Thunderstorm, Mostly cloudy
Thunderstorm, Mostly cloudy
 Wind from S
Wind: S 10 mph , 17 km/h
Temperature: 81°F , 27°C
Heat Index: 86°F , 30°C
Dew Point: 73°F , 23°C
Humidity: 79%
Barometer: 30.14 inHg , 1020.7 hPa
Summary: Thunderstorm
Clouds: Mostly cloudy
Visibility: 7 miles , 11 km
Cloud details: Partly cloudy 3200 ft
Mostly cloudy 4500 ft
Mostly cloudy 11000 ft
2024/07/13 14:45 KJVL 131445Z 18009KT 7SM TS SCT032 BKN045 BKN110 27/23 A3014 RMK OCNL LTGIC TS W MOV E
KEFT - Monroe, Wisconsin, USA
Distance from station: SSW 39mi, 63km
Updated: Sat, Jul-13-2024 10:35am CDT
Clear
Clear
 Wind from SSE
Wind: SSE 10 mph , 17 km/h
Temperature: 79°F , 26°C
Dew Point: 72°F , 22°C
Humidity: 79%
Barometer: 30.11 inHg , 1019.6 hPa
Clouds: Clear
Visibility: 10 miles , 16 km
2024/07/13 15:35 KEFT 131535Z AUTO 16009KT 10SM CLR 26/22 A3011 RMK AO2 T02570219
 
KDLL - Dells/Baraboo, Wisconsin, USA
Distance from station: NW 41mi, 65km
Updated: Sat, Jul-13-2024 10:35am CDT
Partly cloudy
Partly cloudy
 Wind from SSE
Wind: SSE 9 mph , 15 km/h
Temperature: 81°F , 27°C
Heat Index: 85°F , 29°C
Dew Point: 72°F , 22°C
Humidity: 74%
Barometer: 30.10 inHg , 1019.3 hPa
Clouds: Partly cloudy
Visibility: 10 miles , 16 km
Cloud details: Partly cloudy 2600 ft
Partly cloudy 3200 ft
Partly cloudy 3900 ft
2024/07/13 15:35 KDLL 131535Z AUTO 16008KT 10SM SCT026 SCT032 SCT039 27/22 A3010 RMK AO2 T02710219
KUES - Waukesha Cnty, Wisconsin, USA
Distance from station: E 48mi, 77km
Updated: Sat, Jul-13-2024 10:45am CDT
Mostly cloudy
Mostly cloudy
 Wind from S
Wind: S 7 mph , 11 km/h, Gust: 16 mph , 26 km/h
Temperature: 81°F , 27°C
Heat Index: 83°F , 28°C
Dew Point: 64°F , 18°C
Humidity: 58%
Barometer: 30.15 inHg , 1021 hPa
Clouds: Mostly cloudy
Visibility: 10 miles , 16 km
Cloud details: Mostly cloudy 3000 ft
2024/07/13 15:45 KUES 131545Z 17006G14KT 10SM BKN030 27/18 A3015
 
KC35 - Reedsburg, Wisconsin, USA
Distance from station: NW 50mi, 80km
Updated: Sat, Jul-13-2024 10:30am CDT
Partly cloudy
Partly cloudy
 Wind from SSE
Wind: SSE 5 mph , 7 km/h
Temperature: 81°F , 27°C
Heat Index: 85°F , 29°C
Dew Point: 72°F , 22°C
Humidity: 74%
Barometer: 30.09 inHg , 1019 hPa
Clouds: Partly cloudy
Visibility: 10 miles , 16 km
Cloud details: Partly cloudy 5000 ft
2024/07/13 15:30 KC35 131530Z AUTO 15004KT 10SM SCT050 27/22 A3009 RMK AO2 T02660216 PWINO
KLNR - Lone Rock, Wisconsin, USA
Distance from station: W 50mi, 81km
Updated: Sat, Jul-13-2024 9:56am CDT
Clear
Clear
 Wind from ESE
Wind: ESE 9 mph , 15 km/h
Temperature: 81°F , 27°C
Heat Index: 85°F , 29°C
Dew Point: 72°F , 22°C
Humidity: 74%
Barometer: 30.08 inHg , 1018.6 hPa
Clouds: Clear
Visibility: 10 miles , 16 km
2024/07/13 14:56 KLNR 131456Z AUTO 12008KT 10SM CLR 27/22 A3008 RMK AO2 SLP178 60000 T02720217 58013
 
KBUU - Burlington, Wisconsin, USA
Distance from station: ESE 54mi, 86km
Updated: Sat, Jul-13-2024 10:35am CDT
Partly cloudy
Partly cloudy
 Wind from S
Wind: S 6 mph , 9 km/h
Temperature: 81°F , 27°C
Heat Index: 85°F , 29°C
Dew Point: 72°F , 22°C
Humidity: 74%
Barometer: 30.14 inHg , 1020.7 hPa
Clouds: Partly cloudy
Visibility: 10 miles , 16 km
Cloud details: Partly cloudy 2700 ft
2024/07/13 15:35 KBUU 131535Z AUTO 17005KT 10SM SCT027 27/22 A3014 RMK AO2 T02730216 PWINO
KMRJ - Mineral Point, Wisconsin, USA
Distance from station: WSW 54mi, 88km
Updated: Sat, Jul-13-2024 10:35am CDT
Clear
Clear
 Wind from SSE
Wind: SSE 9 mph , 15 km/h
Temperature: 77°F , 25°C
Dew Point: 72°F , 22°C
Humidity: 83%
Barometer: 30.13 inHg , 1020.3 hPa
Clouds: Clear
Visibility: 10 miles , 16 km
2024/07/13 15:35 KMRJ 131535Z AUTO 16008KT 10SM CLR 25/22 A3013 RMK AO2 PWINO
 
KETB - West Bend, Wisconsin, USA
Distance from station: ENE 58mi, 93km
Updated: Sat, Jul-13-2024 10:35am CDT
Clear
Clear
 Wind from SSW
Wind: SSW 8 mph , 13 km/h
Temperature: 81°F , 27°C
Heat Index: 82°F , 28°C
Dew Point: 61°F , 16°C
Humidity: 51%
Barometer: 30.15 inHg , 1021 hPa
Clouds: Clear
Visibility: 10 miles , 16 km
2024/07/13 15:35 KETB 131535Z AUTO 20007KT 10SM CLR 27/16 A3015 RMK AO2
KFLD - Fond Du Lac, Wisconsin, USA
Distance from station: NE 58mi, 94km
Updated: Sat, Jul-13-2024 9:53am CDT
Clear
Clear
 Wind from S
Wind: S 12 mph , 19 km/h
Temperature: 81°F , 27°C
Heat Index: 83°F , 28°C
Dew Point: 64°F , 18°C
Humidity: 58%
Barometer: 30.14 inHg , 1020.7 hPa
Clouds: Clear
Visibility: 10 miles , 16 km
2024/07/13 14:53 KFLD 131453Z AUTO 19010KT 10SM CLR 27/18 A3014 RMK AO2 SLP200 T02670183 58002
 
KMWC - Milwaukee/Lawren, Wisconsin, USA
Distance from station: E 59mi, 94km
Updated: Sat, Jul-13-2024 9:45am CDT
Clear
Clear
 Wind from S
Wind: S 8 mph , 13 km/h
Temperature: 79°F , 26°C
Dew Point: 63°F , 17°C
Humidity: 58%
Barometer: 30.17 inHg , 1021.7 hPa
Clouds: Clear
Visibility: 10 miles , 16 km
2024/07/13 14:45 KMWC 131445Z 19007KT 10SM CLR 26/17 A3017
KFEP - Freeport, Illinois, USA
Distance from station: SSW 62mi, 100km
Updated: Sat, Jul-13-2024 10:35am CDT
Clear
Clear
 Wind from S
Wind: S 14 mph , 22 km/h, Gust: 18 mph , 30 km/h
Temperature: 82°F , 28°C
Heat Index: 87°F , 31°C
Dew Point: 73°F , 23°C
Humidity: 74%
Barometer: 30.13 inHg , 1020.3 hPa
Clouds: Clear
Visibility: 10 miles , 16 km
2024/07/13 15:35 KFEP 131535Z AUTO 18012G16KT 10SM CLR 28/23 A3013 RMK AO2 T02820230
 
KRFD - Rockford, Illinois, USA
Distance from station: S 62mi, 100km
Updated: Sat, Jul-13-2024 9:54am CDT
Mostly cloudy
Mostly cloudy
 Wind from SSE
Wind: SSE 7 mph , 11 km/h
Temperature: 81°F , 27°C
Heat Index: 85°F , 29°C
Dew Point: 72°F , 22°C
Humidity: 74%
Barometer: 30.16 inHg , 1021.3 hPa
Clouds: Mostly cloudy
Visibility: 10 miles , 16 km
Cloud details: Few Clouds 3300 ft
Partly cloudy 4500 ft
Mostly cloudy 7000 ft
Mostly cloudy 25000 ft
2024/07/13 14:54 KRFD 131454Z 16006KT 10SM FEW033 SCT045 BKN070 BKN250 27/22 A3016 RMK AO2 SLP208 T02670217 58000
KY50 - Wautoma, Wisconsin, USA
Distance from station: N 65mi, 104km
Updated: Fri, Jul-12-2024 5:56pm CDT
NOT Current
Clear
Clear
 Wind from SSW
Wind: SSW 7 mph , 11 km/h
Temperature: 84°F , 29°C
Heat Index: 85°F , 29°C
Dew Point: 63°F , 17°C
Humidity: 48%
Barometer: 30.08 inHg , 1018.6 hPa
Clouds: Clear
Visibility: 10 miles , 16 km
2024/07/12 22:56 KY50 122256Z AUTO 21006KT 10SM CLR 29/17 A3008 RMK AO2 SLP178 T02890172 $
 
KMKE - Milwaukee, Wisconsin, USA
Distance from station: E 66mi, 107km
Updated: Sat, Jul-13-2024 9:52am CDT
Few Clouds
Few Clouds
 Wind from S
Wind: S 8 mph , 13 km/h
Temperature: 81°F , 27°C
Heat Index: 83°F , 28°C
Dew Point: 66°F , 19°C
Humidity: 62%
Barometer: 30.14 inHg , 1020.7 hPa
Clouds: Few Clouds
Visibility: 10 miles , 16 km
Cloud details: Few Clouds 3700 ft
Few Clouds 8500 ft
2024/07/13 14:52 KMKE 131452Z 19007KT 10SM FEW037 FEW085 27/19 A3014 RMK AO2 SLP202 T02720189 58002
KOSH - Oshkosh, Wisconsin, USA
Distance from station: NNE 68mi, 110km
Updated: Sat, Jul-13-2024 9:53am CDT
Clear
Clear
 Wind from SSW
Wind: SSW 10 mph , 17 km/h
Temperature: 81°F , 27°C
Heat Index: 83°F , 28°C
Dew Point: 66°F , 19°C
Humidity: 62%
Barometer: 30.13 inHg , 1020.3 hPa
Clouds: Clear
Visibility: 10 miles , 16 km
2024/07/13 14:53 KOSH 131453Z 20009KT 10SM CLR 27/19 A3013 RMK AO2 SLP187 T02720194 58003